Terminal Aerodrome Forecast
Issued by NWS

Home | Current Version | Previous Version | Text Only | Print | Product List | Glossary Off
Versions: 1 2 3 4 5 6 7 8 9 10 11 12 13 14 15 16 17 18 19

000
FTUS43 KTOP 190500
TAFMHK
TAF
KMHK 190520Z 1906/2006 00000KT 6SM BR OVC009
      TEMPO 1910/1914 2SM BR OVC006
     FM191900 19004KT 6SM BR SCT009 OVC015=

USA.gov is the U.S. government's official web portal to all federal, state and local government web resources and services.